Terminal Aerodrome Forecast
Issued by NWS Binghamton, NY

Home | Current Version | Previous Version | Text Only | Print | Product List | Glossary On
Versions: 1 2 3 4 5 6 7 8 9 10 11 12 13 14 15 16 17 18 19 20 21 22 23 24
000
FTUS41 KBGM 202300
TAFBGM
TAF
KBGM 202338Z 2100/2124 20005KT P6SM BKN050
      TEMPO 2100/2104 3SM -SHRA BR BKN025 OVC050
     FM210400 17004KT 4SM BR BKN025 OVC040
      TEMPO 2105/2107 2SM BR BKN007 OVC015
     FM210700 15004KT 2SM BR OVC005
     FM211500 21005KT 4SM BR OVC015
     FM211800 20005KT P6SM -SHRA BKN025 OVC040=

USA.gov is the U.S. government's official web portal to all federal, state and local government web resources and services.